createdAt,value
2018-07-31T00:02:18.888Z,69.69
2018-07-31T00:04:47.287Z,69.72
2018-07-31T00:07:15.760Z,69.71
2018-07-31T00:09:44.203Z,69.57
2018-07-31T00:12:12.803Z,69.73
2018-07-31T00:14:41.459Z,69.10
2018-07-31T00:17:09.935Z,69.11
2018-07-31T00:19:38.322Z,70.54
2018-07-31T00:22:06.991Z,70.86
2018-07-31T00:24:35.458Z,70.95
2018-07-31T00:27:03.959Z,71.38
2018-07-31T00:29:32.505Z,71.21
2018-07-31T00:32:00.920Z,70.76
2018-07-31T00:34:29.377Z,71.56
2018-07-31T00:36:57.862Z,71.29
2018-07-31T00:39:26.356Z,72.46
2018-07-31T00:41:54.816Z,71.58
2018-07-31T00:44:23.551Z,72.71
2018-07-31T00:46:51.952Z,72.98
2018-07-31T00:49:20.410Z,72.13
2018-07-31T00:51:49.088Z,71.98
2018-07-31T00:54:17.499Z,73.06
2018-07-31T00:56:45.987Z,73.62
2018-07-31T00:59:14.875Z,72.75
2018-07-31T01:01:43.331Z,73.63
2018-07-31T01:04:11.782Z,74.11
2018-07-31T01:06:42.438Z,73.71
2018-07-31T01:09:12.307Z,73.99
2018-07-31T01:11:41.095Z,73.44
2018-07-31T01:14:10.342Z,74.43
2018-07-31T01:16:40.367Z,73.59
2018-07-31T01:19:09.367Z,73.91
2018-07-31T01:21:37.803Z,74.65
2018-07-31T01:24:06.767Z,73.85
2018-07-31T01:26:35.219Z,74.37
2018-07-31T01:29:03.648Z,73.82
2018-07-31T01:31:32.111Z,76.05
2018-07-31T01:34:00.614Z,75.87
2018-07-31T01:36:29.099Z,76.14
2018-07-31T01:38:57.763Z,76.17
2018-07-31T01:41:26.545Z,75.68
2018-07-31T01:43:54.983Z,75.15
2018-07-31T01:46:23.451Z,75.04
2018-07-31T01:48:51.883Z,74.70
2018-07-31T01:51:20.345Z,75.35
2018-07-31T01:53:48.752Z,75.13
2018-07-31T01:56:17.731Z,75.70
2018-07-31T01:58:46.143Z,75.80
2018-07-31T02:01:14.795Z,75.16
2018-07-31T02:03:43.243Z,74.57
2018-07-31T02:06:11.793Z,75.14
2018-07-31T02:08:40.224Z,75.48
2018-07-31T02:11:08.743Z,76.72
2018-07-31T02:13:37.173Z,75.80
2018-07-31T02:16:05.883Z,76.42
2018-07-31T02:18:34.486Z,76.28
2018-07-31T02:21:02.988Z,75.30
2018-07-31T02:23:31.504Z,75.61
2018-07-31T02:26:00.151Z,75.59
2018-07-31T02:28:28.708Z,75.54
2018-07-31T02:30:57.171Z,76.03
2018-07-31T02:33:25.739Z,76.20
2018-07-31T02:35:54.170Z,75.51
2018-07-31T02:38:22.563Z,76.47
2018-07-31T02:40:51.227Z,77.24
2018-07-31T02:43:19.763Z,78.48
2018-07-31T02:45:48.230Z,78.18
2018-07-31T02:48:16.679Z,76.72
2018-07-31T02:50:45.059Z,78.70
2018-07-31T02:53:13.496Z,78.22
2018-07-31T02:55:42.186Z,78.33
2018-07-31T02:58:10.666Z,77.53
2018-07-31T03:00:39.312Z,78.30
2018-07-31T03:03:07.987Z,77.51
2018-07-31T03:05:36.469Z,77.17
2018-07-31T03:08:04.986Z,77.92
2018-07-31T03:10:33.445Z,77.92
2018-07-31T03:13:01.879Z,77.57
2018-07-31T03:15:30.354Z,78.37
2018-07-31T03:17:58.977Z,78.42
2018-07-31T03:20:27.455Z,78.46
2018-07-31T03:22:55.950Z,78.82
2018-07-31T03:25:24.536Z,79.03
2018-07-31T03:27:52.939Z,79.34
2018-07-31T03:30:21.332Z,78.62
2018-07-31T03:32:49.914Z,79.42
2018-07-31T03:35:18.311Z,78.45
2018-07-31T03:37:46.707Z,78.17
2018-07-31T03:40:15.150Z,79.69
2018-07-31T03:42:43.603Z,79.96
2018-07-31T03:45:12.010Z,79.97
2018-07-31T03:47:40.432Z,79.09
2018-07-31T03:50:08.951Z,79.16
2018-07-31T03:52:37.416Z,78.71
2018-07-31T03:55:06.079Z,79.10
2018-07-31T03:57:34.542Z,79.36
2018-07-31T04:00:03.117Z,80.14
2018-07-31T04:02:31.731Z,80.72
2018-07-31T04:05:00.147Z,81.35
2018-07-31T04:07:29.132Z,80.90
2018-07-31T04:09:57.605Z,80.81
2018-07-31T04:12:26.043Z,80.60
2018-07-31T04:14:54.551Z,79.64
2018-07-31T04:17:23.079Z,79.87
2018-07-31T04:19:51.544Z,79.61
2018-07-31T04:22:20.035Z,79.35
2018-07-31T04:24:48.502Z,79.10
2018-07-31T04:27:17.000Z,81.40
2018-07-31T04:29:45.410Z,80.85
2018-07-31T04:32:14.235Z,79.96
2018-07-31T04:34:42.690Z,80.89
2018-07-31T04:37:11.092Z,79.98
2018-07-31T04:39:39.626Z,80.18
2018-07-31T04:42:08.072Z,79.60
2018-07-31T04:44:36.587Z,78.83
2018-07-31T04:47:06.392Z,77.76
2018-07-31T04:49:34.919Z,76.98
2018-07-31T04:52:03.379Z,77.19
2018-07-31T04:54:32.016Z,76.71
2018-07-31T04:57:01.032Z,74.63
2018-07-31T04:59:29.535Z,72.92
2018-07-31T05:01:58.091Z,69.98
2018-07-31T05:04:26.602Z,67.08
2018-07-31T05:06:54.955Z,66.75
2018-07-31T05:09:23.850Z,66.03
2018-07-31T05:11:52.249Z,63.74
2018-07-31T05:14:20.659Z,63.52
2018-07-31T05:16:49.347Z,62.55
2018-07-31T05:19:17.739Z,62.98
2018-07-31T05:21:46.259Z,61.55
2018-07-31T05:24:14.754Z,61.24
2018-07-31T05:26:43.222Z,61.33
2018-07-31T05:29:11.605Z,61.00
2018-07-31T05:31:40.055Z,60.27
2018-07-31T05:34:08.524Z,60.35
2018-07-31T05:36:36.952Z,59.96
2018-07-31T05:39:08.867Z,59.03
2018-07-31T05:41:37.399Z,58.53
2018-07-31T05:44:06.283Z,58.56
2018-07-31T05:46:34.864Z,58.33
2018-07-31T05:49:03.689Z,58.36
2018-07-31T05:51:32.117Z,57.05
2018-07-31T05:54:00.745Z,57.23
2018-07-31T05:56:29.266Z,58.38
2018-07-31T05:58:57.678Z,57.63
2018-07-31T06:01:26.335Z,56.70
2018-07-31T06:03:54.875Z,55.87
2018-07-31T06:06:23.400Z,55.57
2018-07-31T06:08:52.199Z,55.32
2018-07-31T06:11:20.722Z,55.72
2018-07-31T06:13:49.131Z,55.17
2018-07-31T06:16:17.783Z,54.90
2018-07-31T06:18:46.225Z,55.56
2018-07-31T06:21:14.679Z,56.75
2018-07-31T06:23:43.268Z,55.50
2018-07-31T06:26:11.647Z,55.76
2018-07-31T06:28:40.083Z,55.73
2018-07-31T06:31:08.591Z,56.30
2018-07-31T06:33:37.099Z,54.73
2018-07-31T06:36:05.508Z,56.47
2018-07-31T06:38:34.091Z,55.92
2018-07-31T06:41:02.884Z,56.80
2018-07-31T06:43:31.413Z,55.43
2018-07-31T06:45:59.855Z,55.77
2018-07-31T06:48:28.247Z,55.58
2018-07-31T06:50:57.791Z,54.77
2018-07-31T06:53:26.527Z,55.02
2018-07-31T06:55:54.983Z,55.88
2018-07-31T06:58:23.387Z,54.18
2018-07-31T07:00:51.927Z,54.96
2018-07-31T07:03:20.339Z,54.75
2018-07-31T07:05:48.882Z,54.99
2018-07-31T07:08:17.610Z,54.15
2018-07-31T07:10:46.051Z,54.15
2018-07-31T07:13:14.442Z,53.10
2018-07-31T07:15:43.407Z,53.49
2018-07-31T07:18:11.827Z,52.66
2018-07-31T07:20:40.309Z,53.82
2018-07-31T07:23:08.988Z,53.48
2018-07-31T07:25:37.367Z,55.54
2018-07-31T07:28:05.913Z,55.09
2018-07-31T07:30:34.551Z,53.51
2018-07-31T07:33:02.959Z,51.92
2018-07-31T07:35:31.350Z,51.42
2018-07-31T07:37:59.907Z,51.99
2018-07-31T07:40:28.299Z,50.97
2018-07-31T07:42:56.831Z,51.73
2018-07-31T07:45:25.543Z,49.42
2018-07-31T07:47:53.979Z,49.43
2018-07-31T07:50:22.435Z,48.46
2018-07-31T07:52:51.363Z,47.00
2018-07-31T07:55:19.831Z,48.23
2018-07-31T07:57:48.387Z,46.69
2018-07-31T08:00:17.049Z,45.32
2018-07-31T08:02:45.508Z,45.38
2018-07-31T08:05:13.963Z,45.82
2018-07-31T08:07:42.424Z,46.34
2018-07-31T08:10:10.896Z,46.29
2018-07-31T08:12:39.416Z,46.07
2018-07-31T08:15:08.292Z,45.88
2018-07-31T08:17:36.587Z,44.12
2018-07-31T08:20:06.254Z,45.51
2018-07-31T08:22:34.983Z,44.23
2018-07-31T08:25:03.478Z,44.12
2018-07-31T08:27:31.921Z,44.00
2018-07-31T08:30:00.472Z,42.75
2018-07-31T08:32:28.907Z,42.85
2018-07-31T08:34:57.386Z,41.57
2018-07-31T08:37:25.944Z,40.73
2018-07-31T08:39:54.370Z,41.41
2018-07-31T08:42:22.851Z,40.43
2018-07-31T08:44:51.627Z,40.52
2018-07-31T08:47:20.298Z,39.79
2018-07-31T08:49:48.663Z,39.67
2018-07-31T08:52:17.375Z,39.76
2018-07-31T08:54:45.823Z,39.36
2018-07-31T08:57:14.311Z,38.25
2018-07-31T08:59:42.815Z,38.88
2018-07-31T09:02:11.353Z,37.59
2018-07-31T09:04:39.846Z,38.33
2018-07-31T09:07:08.285Z,36.86
2018-07-31T09:09:36.659Z,36.08
2018-07-31T09:12:05.252Z,37.02
2018-07-31T09:14:33.767Z,37.65
2018-07-31T09:17:02.159Z,36.93
2018-07-31T09:19:30.567Z,36.05
2018-07-31T09:21:59.087Z,36.50
2018-07-31T09:24:27.827Z,36.69
2018-07-31T09:26:56.295Z,37.80
2018-07-31T09:29:24.752Z,37.09
2018-07-31T09:31:53.112Z,36.81
2018-07-31T09:34:21.567Z,36.59
2018-07-31T09:36:50.313Z,36.26
2018-07-31T09:39:18.720Z,37.23
2018-07-31T09:41:47.252Z,36.24
2018-07-31T09:44:15.895Z,35.23
2018-07-31T09:46:44.400Z,35.30
2018-07-31T09:49:12.860Z,36.13
2018-07-31T09:51:41.337Z,35.42
2018-07-31T09:54:09.801Z,35.27
2018-07-31T09:56:38.288Z,35.94
2018-07-31T09:59:06.741Z,34.66
2018-07-31T10:01:35.154Z,34.32
2018-07-31T10:04:03.561Z,33.94
2018-07-31T10:06:32.346Z,35.05
2018-07-31T10:09:00.731Z,33.18
2018-07-31T10:11:29.123Z,33.91
2018-07-31T10:13:57.564Z,33.92
2018-07-31T10:16:26.061Z,34.49
2018-07-31T10:18:54.608Z,33.25
2018-07-31T10:21:23.206Z,33.81
2018-07-31T10:23:51.630Z,33.46
2018-07-31T10:26:20.123Z,32.59
2018-07-31T10:28:48.904Z,33.05
2018-07-31T10:31:17.323Z,32.64
2018-07-31T10:33:45.707Z,32.78
2018-07-31T10:36:14.296Z,33.75
2018-07-31T10:38:42.687Z,34.17
2018-07-31T10:41:11.187Z,32.95
2018-07-31T10:43:39.724Z,34.00
2018-07-31T10:46:08.167Z,33.52
2018-07-31T10:48:36.687Z,32.51
2018-07-31T10:51:05.581Z,31.85
2018-07-31T10:53:34.098Z,31.41
2018-07-31T10:56:02.569Z,31.16
2018-07-31T10:58:31.740Z,31.85
2018-07-31T11:01:00.171Z,30.93
2018-07-31T11:03:28.776Z,30.96
2018-07-31T11:05:57.290Z,30.99
2018-07-31T11:08:25.807Z,30.44
2018-07-31T11:10:54.239Z,30.17
2018-07-31T11:13:22.761Z,29.71
2018-07-31T11:15:51.419Z,30.95
2018-07-31T11:18:19.885Z,30.25
2018-07-31T11:20:48.368Z,29.98
2018-07-31T11:23:16.833Z,30.48
2018-07-31T11:25:45.331Z,30.89
2018-07-31T11:28:14.203Z,30.25
2018-07-31T11:30:42.677Z,30.49
2018-07-31T11:33:11.182Z,30.55
2018-07-31T11:35:39.615Z,30.65
2018-07-31T11:38:08.035Z,30.56
2018-07-31T11:40:36.412Z,31.12
2018-07-31T11:43:05.355Z,30.80
2018-07-31T11:45:33.775Z,31.38
2018-07-31T11:48:02.190Z,30.96
2018-07-31T11:50:30.679Z,30.37
2018-07-31T11:52:59.179Z,30.70
2018-07-31T11:55:27.673Z,29.75
2018-07-31T11:57:56.172Z,30.12
2018-07-31T12:00:24.594Z,29.87
2018-07-31T12:02:53.027Z,29.77
2018-07-31T12:05:21.683Z,29.49
2018-07-31T12:07:50.119Z,29.97
2018-07-31T12:10:18.543Z,30.19
2018-07-31T12:12:47.182Z,29.22
2018-07-31T12:15:15.695Z,29.89
2018-07-31T12:17:44.179Z,29.82
2018-07-31T12:20:12.771Z,28.99
2018-07-31T12:22:41.176Z,29.35
2018-07-31T12:25:09.567Z,29.94
2018-07-31T12:27:37.977Z,29.05
2018-07-31T12:30:08.903Z,29.11
2018-07-31T12:32:37.451Z,29.01
2018-07-31T12:35:06.011Z,30.66
2018-07-31T12:37:34.447Z,29.87
2018-07-31T12:40:03.275Z,29.75
2018-07-31T12:42:31.650Z,29.07
2018-07-31T12:45:00.057Z,30.28
2018-07-31T12:47:28.491Z,29.68
2018-07-31T12:49:57.335Z,29.46
2018-07-31T12:52:25.713Z,30.32
2018-07-31T12:54:54.227Z,29.92
2018-07-31T12:57:22.699Z,29.06
2018-07-31T12:59:51.200Z,30.39
2018-07-31T13:02:20.147Z,31.26
2018-07-31T13:04:48.650Z,30.65
2018-07-31T13:07:17.057Z,30.71
2018-07-31T13:09:45.882Z,30.80
2018-07-31T13:12:14.331Z,30.97
2018-07-31T13:14:42.771Z,31.54
2018-07-31T13:17:11.506Z,32.71
2018-07-31T13:19:40.231Z,31.61
2018-07-31T13:22:08.744Z,31.72
2018-07-31T13:24:37.295Z,30.61
2018-07-31T13:27:05.735Z,31.67
2018-07-31T13:29:34.203Z,31.86
2018-07-31T13:32:03.120Z,30.64
2018-07-31T13:34:32.221Z,30.23
2018-07-31T13:37:00.666Z,31.56
2018-07-31T13:39:29.384Z,30.98
2018-07-31T13:41:57.859Z,31.29
2018-07-31T13:44:27.903Z,31.31
2018-07-31T13:46:56.387Z,31.22
2018-07-31T13:49:24.883Z,30.14
2018-07-31T13:51:53.345Z,30.36
2018-07-31T13:54:22.045Z,30.55
2018-07-31T13:56:50.610Z,29.04
2018-07-31T13:59:19.103Z,30.03
2018-07-31T14:01:47.676Z,29.68
2018-07-31T14:04:16.646Z,29.98
2018-07-31T14:06:45.403Z,30.22
2018-07-31T14:09:14.064Z,29.87
2018-07-31T14:11:42.551Z,29.12
2018-07-31T14:14:11.011Z,29.16
2018-07-31T14:16:39.688Z,29.31
2018-07-31T14:19:08.265Z,29.28
2018-07-31T14:21:37.111Z,29.42
2018-07-31T14:24:05.779Z,29.20
2018-07-31T14:26:34.192Z,29.81
2018-07-31T14:29:02.690Z,28.37
2018-07-31T14:31:31.231Z,28.99
2018-07-31T14:33:59.811Z,29.50
2018-07-31T14:36:28.245Z,29.40
2018-07-31T14:38:56.792Z,28.74
2018-07-31T14:41:25.199Z,29.41
2018-07-31T14:43:53.787Z,29.12
2018-07-31T14:46:22.307Z,28.42
2018-07-31T14:48:50.815Z,29.71
2018-07-31T14:51:19.232Z,29.96
2018-07-31T14:53:47.755Z,29.57
2018-07-31T14:56:16.159Z,29.62
2018-07-31T14:58:44.546Z,28.54
2018-07-31T15:01:13.278Z,29.48
2018-07-31T15:03:41.731Z,28.94
2018-07-31T15:06:10.179Z,29.08
2018-07-31T15:08:39.820Z,29.60
2018-07-31T15:11:10.088Z,29.71
2018-07-31T15:13:38.906Z,30.66
2018-07-31T15:16:07.621Z,30.15
2018-07-31T15:18:36.020Z,29.54
2018-07-31T15:21:04.624Z,29.68
2018-07-31T15:23:33.064Z,30.48
2018-07-31T15:26:01.763Z,29.51
2018-07-31T15:28:30.428Z,30.26
2018-07-31T15:30:58.903Z,29.73
2018-07-31T15:33:27.347Z,30.47
2018-07-31T15:35:56.383Z,29.93
2018-07-31T15:38:25.147Z,30.26
2018-07-31T15:40:53.615Z,30.25
2018-07-31T15:43:22.295Z,30.22
2018-07-31T15:45:50.807Z,29.84
2018-07-31T15:48:19.227Z,30.17
2018-07-31T15:50:47.859Z,29.84
2018-07-31T15:53:16.315Z,30.54
2018-07-31T15:55:44.790Z,31.00
2018-07-31T15:58:13.351Z,30.41
2018-07-31T16:00:41.764Z,30.58
2018-07-31T16:03:10.274Z,30.54
2018-07-31T16:05:38.770Z,31.29
2018-07-31T16:08:07.216Z,29.80
2018-07-31T16:10:35.631Z,30.39
2018-07-31T16:13:04.083Z,31.15
2018-07-31T16:15:32.463Z,30.59
2018-07-31T16:18:01.851Z,30.26
2018-07-31T16:20:31.627Z,31.22
2018-07-31T16:23:00.069Z,31.03
2018-07-31T16:25:28.679Z,30.82
2018-07-31T16:27:57.188Z,29.83
2018-07-31T16:30:30.193Z,30.97
2018-07-31T16:32:58.915Z,30.86
2018-07-31T16:35:27.379Z,30.67
2018-07-31T16:37:55.835Z,30.51
2018-07-31T16:40:24.343Z,30.51
2018-07-31T16:42:52.834Z,30.62
2018-07-31T16:45:22.260Z,30.52
2018-07-31T16:47:50.776Z,30.89
2018-07-31T16:50:19.211Z,30.89
2018-07-31T16:52:47.694Z,30.78
2018-07-31T16:55:16.163Z,30.45
2018-07-31T16:57:44.611Z,30.50
2018-07-31T17:00:13.040Z,31.17
2018-07-31T17:02:41.618Z,30.56
2018-07-31T17:05:10.032Z,30.74
2018-07-31T17:07:38.522Z,29.91
2018-07-31T17:10:07.191Z,30.42
2018-07-31T17:12:35.658Z,30.22
2018-07-31T17:15:04.619Z,30.44
2018-07-31T17:17:33.242Z,31.29
2018-07-31T17:20:01.659Z,31.29
2018-07-31T17:22:30.235Z,31.40
2018-07-31T17:24:58.951Z,30.91
2018-07-31T17:27:27.478Z,31.32
2018-07-31T17:29:56.060Z,31.80
2018-07-31T17:32:24.823Z,31.41
2018-07-31T17:34:53.227Z,31.41
2018-07-31T17:37:21.644Z,31.21
2018-07-31T17:39:50.505Z,31.34
2018-07-31T17:42:18.898Z,31.79
2018-07-31T17:44:47.322Z,32.22
2018-07-31T17:47:16.243Z,32.45
2018-07-31T17:49:44.696Z,33.08
2018-07-31T17:52:13.093Z,34.04
2018-07-31T17:54:41.513Z,32.61
2018-07-31T17:57:10.218Z,33.08
2018-07-31T17:59:38.703Z,33.45
2018-07-31T18:02:07.985Z,33.75
2018-07-31T18:04:36.524Z,33.46
2018-07-31T18:07:04.975Z,34.59
2018-07-31T18:09:33.415Z,35.02
2018-07-31T18:12:01.943Z,34.02
2018-07-31T18:14:30.479Z,33.94
2018-07-31T18:16:58.904Z,34.50
2018-07-31T18:19:27.367Z,34.42
2018-07-31T18:21:55.767Z,36.18
2018-07-31T18:24:24.632Z,35.69
2018-07-31T18:26:53.064Z,36.77
2018-07-31T18:29:21.547Z,36.90
2018-07-31T18:31:50.211Z,35.73
2018-07-31T18:34:18.605Z,35.86
2018-07-31T18:36:46.979Z,36.17
2018-07-31T18:39:15.611Z,36.06
2018-07-31T18:41:44.030Z,36.06
2018-07-31T18:44:12.637Z,37.10
2018-07-31T18:46:41.687Z,37.59
2018-07-31T18:49:10.237Z,38.73
2018-07-31T18:51:38.700Z,39.62
2018-07-31T18:54:07.611Z,40.24
2018-07-31T18:56:36.748Z,39.35
2018-07-31T18:59:05.214Z,40.14
2018-07-31T19:01:33.910Z,40.55
2018-07-31T19:04:02.399Z,41.04
2018-07-31T19:06:30.865Z,39.68
2018-07-31T19:08:59.489Z,39.42
2018-07-31T19:11:28.346Z,39.77
2018-07-31T19:13:56.871Z,39.59
2018-07-31T19:16:25.679Z,39.25
2018-07-31T19:18:54.194Z,39.31
2018-07-31T19:21:22.853Z,40.41
2018-07-31T19:23:51.705Z,39.04
2018-07-31T19:26:20.235Z,40.31
2018-07-31T19:28:48.732Z,39.94
2018-07-31T19:31:17.522Z,40.02
2018-07-31T19:33:46.059Z,40.24
2018-07-31T19:36:15.221Z,40.91
2018-07-31T19:38:44.273Z,39.80
2018-07-31T19:41:13.186Z,40.42
2018-07-31T19:43:42.257Z,41.29
2018-07-31T19:46:10.950Z,41.45
2018-07-31T19:48:39.875Z,41.56
2018-07-31T19:51:09.058Z,41.71
2018-07-31T19:53:37.896Z,42.08
2018-07-31T19:56:06.874Z,43.53
2018-07-31T19:58:38.497Z,44.31
2018-07-31T20:01:08.765Z,44.13
2018-07-31T20:03:37.948Z,44.40
2018-07-31T20:06:06.987Z,44.32
2018-07-31T20:08:35.804Z,45.18
2018-07-31T20:11:05.037Z,46.50
2018-07-31T20:13:33.651Z,45.92
2018-07-31T20:16:02.550Z,47.47
2018-07-31T20:18:31.688Z,46.97
2018-07-31T20:21:03.579Z,48.52
2018-07-31T20:23:33.031Z,47.97
2018-07-31T20:26:02.106Z,49.11
2018-07-31T20:28:31.190Z,48.37
2018-07-31T20:31:00.252Z,48.41
2018-07-31T20:33:33.066Z,47.43
2018-07-31T20:36:03.041Z,46.92
2018-07-31T20:38:31.898Z,47.12
2018-07-31T20:41:01.377Z,47.73
2018-07-31T20:43:31.809Z,45.82
2018-07-31T20:46:01.043Z,46.88
2018-07-31T20:48:30.229Z,46.29
2018-07-31T20:50:59.616Z,47.04
2018-07-31T20:53:28.338Z,47.55
2018-07-31T20:55:56.949Z,47.81
2018-07-31T20:58:25.668Z,47.81
2018-07-31T21:00:54.259Z,48.57
2018-07-31T21:03:27.162Z,48.34
2018-07-31T21:05:56.092Z,48.07
2018-07-31T21:08:24.612Z,47.67
2018-07-31T21:10:53.483Z,47.23
2018-07-31T21:13:21.907Z,47.72
2018-07-31T21:15:50.376Z,46.75
2018-07-31T21:18:18.925Z,47.65
2018-07-31T21:20:47.668Z,48.22
2018-07-31T21:23:16.152Z,49.21
2018-07-31T21:25:48.615Z,46.46
2018-07-31T21:28:17.136Z,46.78
2018-07-31T21:30:48.582Z,46.79
2018-07-31T21:33:17.653Z,48.01
2018-07-31T21:35:47.419Z,46.75
2018-07-31T21:38:16.275Z,48.84
2018-07-31T21:40:47.382Z,47.79
2018-07-31T21:43:17.263Z,48.15
2018-07-31T21:45:45.869Z,47.29
2018-07-31T21:48:17.017Z,46.63
2018-07-31T21:50:45.665Z,46.68
2018-07-31T21:53:17.684Z,45.94
2018-07-31T21:55:50.459Z,47.31
2018-07-31T21:58:19.831Z,48.40
2018-07-31T22:00:56.297Z,47.45
2018-07-31T22:03:28.851Z,48.96
2018-07-31T22:05:58.794Z,48.64
2018-07-31T22:08:28.694Z,49.64
2018-07-31T22:11:00.207Z,49.35
2018-07-31T22:13:32.905Z,50.13
2018-07-31T22:16:01.451Z,51.69
2018-07-31T22:18:30.901Z,51.02
2018-07-31T22:21:01.127Z,50.81
2018-07-31T22:23:29.579Z,50.96
2018-07-31T22:25:58.355Z,51.06
2018-07-31T22:28:27.933Z,50.31
2018-07-31T22:30:57.379Z,50.52
2018-07-31T22:33:27.697Z,51.50
2018-07-31T22:35:56.183Z,51.03
2018-07-31T22:38:25.037Z,51.64
2018-07-31T22:40:56.276Z,52.97
2018-07-31T22:43:25.156Z,53.29
2018-07-31T22:45:53.711Z,53.52
2018-07-31T22:48:23.807Z,54.04
2018-07-31T22:50:52.386Z,53.99
2018-07-31T22:53:24.147Z,53.45
2018-07-31T22:55:54.361Z,52.76
2018-07-31T22:58:25.221Z,53.75
2018-07-31T23:00:54.008Z,54.28
2018-07-31T23:03:23.925Z,56.13
2018-07-31T23:05:54.711Z,55.60
2018-07-31T23:08:24.739Z,56.46
2018-07-31T23:10:55.908Z,56.06
2018-07-31T23:13:25.840Z,55.16
2018-07-31T23:15:57.234Z,52.98
2018-07-31T23:18:25.967Z,52.03
2018-07-31T23:20:54.534Z,54.14
2018-07-31T23:23:22.882Z,53.69
2018-07-31T23:25:51.307Z,54.93
2018-07-31T23:28:19.707Z,53.69
2018-07-31T23:30:48.290Z,53.30
2018-07-31T23:33:16.946Z,53.12
2018-07-31T23:35:45.371Z,52.80
2018-07-31T23:38:13.824Z,51.76
2018-07-31T23:40:42.300Z,51.89
2018-07-31T23:43:10.900Z,53.67
2018-07-31T23:45:40.219Z,55.41
2018-07-31T23:48:08.724Z,55.47
2018-07-31T23:50:37.311Z,54.94
2018-07-31T23:53:06.259Z,54.16
2018-07-31T23:55:34.679Z,54.61
2018-07-31T23:58:03.102Z,54.08
